sensor_id;sensor_type;location;lat;lon;timestamp;temperature;humidity
45837;DHT22;31548;51.420;-0.040;2023-02-01T00:00:35;5.80;99.90
45837;DHT22;31548;51.420;-0.040;2023-02-01T00:03:02;5.70;99.90
45837;DHT22;31548;51.420;-0.040;2023-02-01T00:05:29;5.70;99.90
45837;DHT22;31548;51.420;-0.040;2023-02-01T00:07:56;5.70;99.90
45837;DHT22;31548;51.420;-0.040;2023-02-01T00:10:23;5.70;99.90
45837;DHT22;31548;51.420;-0.040;2023-02-01T00:12:51;5.60;99.90
45837;DHT22;31548;51.420;-0.040;2023-02-01T00:15:18;5.60;99.90
45837;DHT22;31548;51.420;-0.040;2023-02-01T00:17:46;5.60;99.90
45837;DHT22;31548;51.420;-0.040;2023-02-01T00:20:13;5.50;99.90
45837;DHT22;31548;51.420;-0.040;2023-02-01T00:22:40;5.60;99.90
45837;DHT22;31548;51.420;-0.040;2023-02-01T00:25:08;5.50;99.90
45837;DHT22;31548;51.420;-0.040;2023-02-01T00:27:35;5.60;99.90
45837;DHT22;31548;51.420;-0.040;2023-02-01T00:30:03;5.60;99.90
45837;DHT22;31548;51.420;-0.040;2023-02-01T00:32:30;5.60;99.90
45837;DHT22;31548;51.420;-0.040;2023-02-01T00:34:58;5.50;99.90
45837;DHT22;31548;51.420;-0.040;2023-02-01T00:37:26;5.60;99.90
45837;DHT22;31548;51.420;-0.040;2023-02-01T00:39:53;5.50;99.90
45837;DHT22;31548;51.420;-0.040;2023-02-01T00:42:22;5.50;99.90
45837;DHT22;31548;51.420;-0.040;2023-02-01T00:44:49;5.50;99.90
45837;DHT22;31548;51.420;-0.040;2023-02-01T00:47:17;5.40;99.90
45837;DHT22;31548;51.420;-0.040;2023-02-01T00:49:44;5.40;99.90
45837;DHT22;31548;51.420;-0.040;2023-02-01T00:52:11;5.50;99.90
45837;DHT22;31548;51.420;-0.040;2023-02-01T00:54:39;5.50;99.90
45837;DHT22;31548;51.420;-0.040;2023-02-01T00:57:06;5.50;99.90
45837;DHT22;31548;51.420;-0.040;2023-02-01T00:59:33;5.50;99.90
45837;DHT22;31548;51.420;-0.040;2023-02-01T01:02:00;5.50;99.90
45837;DHT22;31548;51.420;-0.040;2023-02-01T01:04:27;5.50;99.90
45837;DHT22;31548;51.420;-0.040;2023-02-01T01:06:55;5.50;99.90
45837;DHT22;31548;51.420;-0.040;2023-02-01T01:09:22;5.50;99.90
45837;DHT22;31548;51.420;-0.040;2023-02-01T01:11:49;5.50;99.90
45837;DHT22;31548;51.420;-0.040;2023-02-01T01:14:18;5.50;99.90
45837;DHT22;31548;51.420;-0.040;2023-02-01T01:16:45;5.60;99.90
45837;DHT22;31548;51.420;-0.040;2023-02-01T01:19:12;5.50;99.90
45837;DHT22;31548;51.420;-0.040;2023-02-01T01:21:40;5.60;99.90
45837;DHT22;31548;51.420;-0.040;2023-02-01T01:24:07;5.50;99.90
45837;DHT22;31548;51.420;-0.040;2023-02-01T01:26:34;5.50;99.90
45837;DHT22;31548;51.420;-0.040;2023-02-01T01:29:02;5.50;99.90
45837;DHT22;31548;51.420;-0.040;2023-02-01T01:31:31;5.60;99.90
45837;DHT22;31548;51.420;-0.040;2023-02-01T01:33:59;5.50;99.90
45837;DHT22;31548;51.420;-0.040;2023-02-01T01:36:28;5.60;99.90
45837;DHT22;31548;51.420;-0.040;2023-02-01T01:38:56;5.50;99.90
45837;DHT22;31548;51.420;-0.040;2023-02-01T01:41:28;5.50;99.90
45837;DHT22;31548;51.420;-0.040;2023-02-01T01:43:59;5.50;99.90
45837;DHT22;31548;51.420;-0.040;2023-02-01T01:46:35;5.50;99.90
45837;DHT22;31548;51.420;-0.040;2023-02-01T01:49:14;5.60;99.90
45837;DHT22;31548;51.420;-0.040;2023-02-01T01:51:57;5.60;99.90
45837;DHT22;31548;51.420;-0.040;2023-02-01T01:54:32;5.60;99.90
45837;DHT22;31548;51.420;-0.040;2023-02-01T01:57:10;5.60;99.90
45837;DHT22;31548;51.420;-0.040;2023-02-01T01:59:40;5.60;99.90
45837;DHT22;31548;51.420;-0.040;2023-02-01T02:02:09;5.50;99.90
45837;DHT22;31548;51.420;-0.040;2023-02-01T02:04:37;5.60;99.90
45837;DHT22;31548;51.420;-0.040;2023-02-01T02:07:09;5.60;99.90
45837;DHT22;31548;51.420;-0.040;2023-02-01T02:09:39;5.60;99.90
45837;DHT22;31548;51.420;-0.040;2023-02-01T02:12:14;5.60;99.90
45837;DHT22;31548;51.420;-0.040;2023-02-01T02:14:41;5.60;99.90
45837;DHT22;31548;51.420;-0.040;2023-02-01T02:24:19;5.50;99.90
45837;DHT22;31548;51.420;-0.040;2023-02-01T02:26:25;5.60;99.90
45837;DHT22;31548;51.420;-0.040;2023-02-01T02:34:37;5.50;99.90
45837;DHT22;31548;51.420;-0.040;2023-02-01T02:37:32;5.50;99.90
45837;DHT22;31548;51.420;-0.040;2023-02-01T02:40:15;5.60;99.90
45837;DHT22;31548;51.420;-0.040;2023-02-01T02:43:18;5.60;99.90
45837;DHT22;31548;51.420;-0.040;2023-02-01T02:46:27;5.60;99.90
45837;DHT22;31548;51.420;-0.040;2023-02-01T02:49:22;5.60;99.90
45837;DHT22;31548;51.420;-0.040;2023-02-01T02:52:01;5.60;99.90
45837;DHT22;31548;51.420;-0.040;2023-02-01T02:54:49;5.60;99.90
45837;DHT22;31548;51.420;-0.040;2023-02-01T03:00:09;5.70;99.90
45837;DHT22;31548;51.420;-0.040;2023-02-01T03:02:56;5.70;99.90
45837;DHT22;31548;51.420;-0.040;2023-02-01T03:05:45;5.80;99.90
45837;DHT22;31548;51.420;-0.040;2023-02-01T03:08:19;5.80;99.90
45837;DHT22;31548;51.420;-0.040;2023-02-01T03:11:08;5.90;99.90
45837;DHT22;31548;51.420;-0.040;2023-02-01T03:13:51;5.90;99.90
45837;DHT22;31548;51.420;-0.040;2023-02-01T03:16:32;5.90;99.90
45837;DHT22;31548;51.420;-0.040;2023-02-01T03:19:33;5.90;99.90
45837;DHT22;31548;51.420;-0.040;2023-02-01T03:22:10;5.90;99.90
45837;DHT22;31548;51.420;-0.040;2023-02-01T03:24:42;5.90;99.90
45837;DHT22;31548;51.420;-0.040;2023-02-01T03:27:17;5.90;99.90
45837;DHT22;31548;51.420;-0.040;2023-02-01T03:30:12;5.90;99.90
45837;DHT22;31548;51.420;-0.040;2023-02-01T03:32:48;5.80;99.90
45837;DHT22;31548;51.420;-0.040;2023-02-01T03:35:38;5.80;99.90
45837;DHT22;31548;51.420;-0.040;2023-02-01T03:38:14;5.80;99.90
45837;DHT22;31548;51.420;-0.040;2023-02-01T03:40:48;5.80;99.90
45837;DHT22;31548;51.420;-0.040;2023-02-01T03:43:19;5.80;99.90
45837;DHT22;31548;51.420;-0.040;2023-02-01T03:45:52;5.90;99.90
45837;DHT22;31548;51.420;-0.040;2023-02-01T03:48:22;5.90;99.90
45837;DHT22;31548;51.420;-0.040;2023-02-01T03:50:53;5.90;99.90
45837;DHT22;31548;51.420;-0.040;2023-02-01T03:53:23;5.90;99.90
45837;DHT22;31548;51.420;-0.040;2023-02-01T03:55:52;5.90;99.90
45837;DHT22;31548;51.420;-0.040;2023-02-01T03:58:22;5.90;99.90
45837;DHT22;31548;51.420;-0.040;2023-02-01T04:00:58;5.90;99.90
45837;DHT22;31548;51.420;-0.040;2023-02-01T04:03:28;5.90;99.90
45837;DHT22;31548;51.420;-0.040;2023-02-01T04:05:56;5.90;99.90
45837;DHT22;31548;51.420;-0.040;2023-02-01T04:08:26;5.90;99.90
45837;DHT22;31548;51.420;-0.040;2023-02-01T04:10:53;5.90;99.90
45837;DHT22;31548;51.420;-0.040;2023-02-01T04:13:21;5.80;99.90
45837;DHT22;31548;51.420;-0.040;2023-02-01T04:15:48;5.80;99.90
45837;DHT22;31548;51.420;-0.040;2023-02-01T04:18:16;5.80;99.90
45837;DHT22;31548;51.420;-0.040;2023-02-01T04:20:44;5.80;99.90
45837;DHT22;31548;51.420;-0.040;2023-02-01T04:23:11;5.80;99.90
45837;DHT22;31548;51.420;-0.040;2023-02-01T04:25:39;5.80;99.90
45837;DHT22;31548;51.420;-0.040;2023-02-01T04:28:06;5.80;99.90
45837;DHT22;31548;51.420;-0.040;2023-02-01T04:30:34;5.70;99.90
45837;DHT22;31548;51.420;-0.040;2023-02-01T04:33:01;5.80;99.90
45837;DHT22;31548;51.420;-0.040;2023-02-01T04:35:32;5.80;99.90
45837;DHT22;31548;51.420;-0.040;2023-02-01T04:37:59;5.80;99.90
45837;DHT22;31548;51.420;-0.040;2023-02-01T04:40:27;5.90;99.90
45837;DHT22;31548;51.420;-0.040;2023-02-01T04:42:54;5.90;99.90
45837;DHT22;31548;51.420;-0.040;2023-02-01T04:45:21;5.90;99.90
45837;DHT22;31548;51.420;-0.040;2023-02-01T04:47:48;5.90;99.90
45837;DHT22;31548;51.420;-0.040;2023-02-01T04:50:16;5.80;99.90
45837;DHT22;31548;51.420;-0.040;2023-02-01T04:52:43;5.90;99.90
45837;DHT22;31548;51.420;-0.040;2023-02-01T04:55:12;5.80;99.90
45837;DHT22;31548;51.420;-0.040;2023-02-01T04:57:40;5.90;99.90
45837;DHT22;31548;51.420;-0.040;2023-02-01T05:00:09;5.90;99.90
45837;DHT22;31548;51.420;-0.040;2023-02-01T05:02:36;5.90;99.90
45837;DHT22;31548;51.420;-0.040;2023-02-01T05:05:05;5.90;99.90
45837;DHT22;31548;51.420;-0.040;2023-02-01T05:07:32;5.90;99.90
45837;DHT22;31548;51.420;-0.040;2023-02-01T05:09:59;5.90;99.90
45837;DHT22;31548;51.420;-0.040;2023-02-01T05:12:26;5.90;99.90
45837;DHT22;31548;51.420;-0.040;2023-02-01T05:15:12;5.90;99.90
45837;DHT22;31548;51.420;-0.040;2023-02-01T05:17:39;5.90;99.90
45837;DHT22;31548;51.420;-0.040;2023-02-01T05:20:08;5.90;99.90
45837;DHT22;31548;51.420;-0.040;2023-02-01T05:22:35;5.90;99.90
45837;DHT22;31548;51.420;-0.040;2023-02-01T05:25:03;6.00;99.90
45837;DHT22;31548;51.420;-0.040;2023-02-01T05:27:33;6.00;99.90
45837;DHT22;31548;51.420;-0.040;2023-02-01T05:30:02;6.00;99.90
45837;DHT22;31548;51.420;-0.040;2023-02-01T05:32:30;6.00;99.90
45837;DHT22;31548;51.420;-0.040;2023-02-01T05:34:57;6.00;99.90
45837;DHT22;31548;51.420;-0.040;2023-02-01T05:37:25;6.00;99.90
45837;DHT22;31548;51.420;-0.040;2023-02-01T05:39:52;6.00;99.90
45837;DHT22;31548;51.420;-0.040;2023-02-01T05:42:20;6.00;99.90
45837;DHT22;31548;51.420;-0.040;2023-02-01T05:44:47;6.00;99.90
45837;DHT22;31548;51.420;-0.040;2023-02-01T05:47:14;6.00;99.90
45837;DHT22;31548;51.420;-0.040;2023-02-01T05:49:41;6.00;99.90
45837;DHT22;31548;51.420;-0.040;2023-02-01T05:52:08;6.00;99.90
45837;DHT22;31548;51.420;-0.040;2023-02-01T05:54:36;6.00;99.90
45837;DHT22;31548;51.420;-0.040;2023-02-01T05:57:03;6.00;99.90
45837;DHT22;31548;51.420;-0.040;2023-02-01T05:59:30;5.90;99.90
45837;DHT22;31548;51.420;-0.040;2023-02-01T06:01:57;5.90;99.90
45837;DHT22;31548;51.420;-0.040;2023-02-01T06:04:25;6.00;99.90
45837;DHT22;31548;51.420;-0.040;2023-02-01T06:06:52;6.00;99.90
45837;DHT22;31548;51.420;-0.040;2023-02-01T06:09:19;6.00;99.90
45837;DHT22;31548;51.420;-0.040;2023-02-01T06:11:46;5.90;99.90
45837;DHT22;31548;51.420;-0.040;2023-02-01T06:14:13;5.90;99.90
45837;DHT22;31548;51.420;-0.040;2023-02-01T06:16:41;6.00;99.90
45837;DHT22;31548;51.420;-0.040;2023-02-01T06:19:08;6.00;99.90
45837;DHT22;31548;51.420;-0.040;2023-02-01T06:21:36;6.00;99.90
45837;DHT22;31548;51.420;-0.040;2023-02-01T06:24:03;6.00;99.90
45837;DHT22;31548;51.420;-0.040;2023-02-01T06:26:30;6.00;99.90
45837;DHT22;31548;51.420;-0.040;2023-02-01T06:28:58;6.00;99.90
45837;DHT22;31548;51.420;-0.040;2023-02-01T06:31:25;6.00;99.90
45837;DHT22;31548;51.420;-0.040;2023-02-01T06:33:52;6.00;99.90
45837;DHT22;31548;51.420;-0.040;2023-02-01T06:36:20;6.00;99.90
45837;DHT22;31548;51.420;-0.040;2023-02-01T06:38:48;6.00;99.90
45837;DHT22;31548;51.420;-0.040;2023-02-01T06:41:15;6.00;99.90
45837;DHT22;31548;51.420;-0.040;2023-02-01T06:43:43;6.00;99.90
45837;DHT22;31548;51.420;-0.040;2023-02-01T06:46:12;6.10;99.90
45837;DHT22;31548;51.420;-0.040;2023-02-01T06:48:40;6.10;99.90
45837;DHT22;31548;51.420;-0.040;2023-02-01T06:51:19;6.10;99.90
45837;DHT22;31548;51.420;-0.040;2023-02-01T06:53:47;6.10;99.90
45837;DHT22;31548;51.420;-0.040;2023-02-01T06:56:14;6.10;99.90
45837;DHT22;31548;51.420;-0.040;2023-02-01T06:58:42;6.10;99.90
45837;DHT22;31548;51.420;-0.040;2023-02-01T07:01:10;6.10;99.90
45837;DHT22;31548;51.420;-0.040;2023-02-01T07:03:38;6.20;99.90
45837;DHT22;31548;51.420;-0.040;2023-02-01T07:06:06;6.10;99.90
45837;DHT22;31548;51.420;-0.040;2023-02-01T07:08:35;6.10;99.90
45837;DHT22;31548;51.420;-0.040;2023-02-01T07:11:09;6.10;99.90
45837;DHT22;31548;51.420;-0.040;2023-02-01T07:13:37;6.10;99.90
45837;DHT22;31548;51.420;-0.040;2023-02-01T07:16:08;6.20;99.90
45837;DHT22;31548;51.420;-0.040;2023-02-01T07:18:36;6.20;99.90
45837;DHT22;31548;51.420;-0.040;2023-02-01T07:21:03;6.20;99.90
45837;DHT22;31548;51.420;-0.040;2023-02-01T07:23:31;6.20;99.90
45837;DHT22;31548;51.420;-0.040;2023-02-01T07:26:01;6.20;99.90
45837;DHT22;31548;51.420;-0.040;2023-02-01T07:28:31;6.20;99.90
45837;DHT22;31548;51.420;-0.040;2023-02-01T07:31:12;6.30;99.90
45837;DHT22;31548;51.420;-0.040;2023-02-01T07:33:45;6.30;99.90
45837;DHT22;31548;51.420;-0.040;2023-02-01T07:36:15;6.30;99.90
45837;DHT22;31548;51.420;-0.040;2023-02-01T07:38:43;6.30;99.90
45837;DHT22;31548;51.420;-0.040;2023-02-01T07:41:11;6.30;99.90
45837;DHT22;31548;51.420;-0.040;2023-02-01T07:43:38;6.30;99.90
45837;DHT22;31548;51.420;-0.040;2023-02-01T07:46:06;6.30;99.90
45837;DHT22;31548;51.420;-0.040;2023-02-01T07:48:33;6.20;99.90
45837;DHT22;31548;51.420;-0.040;2023-02-01T07:53:30;6.20;99.90
45837;DHT22;31548;51.420;-0.040;2023-02-01T07:55:58;6.20;99.90
45837;DHT22;31548;51.420;-0.040;2023-02-01T07:58:26;6.20;99.90
45837;DHT22;31548;51.420;-0.040;2023-02-01T08:00:54;6.20;99.90
45837;DHT22;31548;51.420;-0.040;2023-02-01T08:03:40;6.20;99.90
45837;DHT22;31548;51.420;-0.040;2023-02-01T08:06:08;6.20;99.90
45837;DHT22;31548;51.420;-0.040;2023-02-01T08:08:35;6.20;99.90
45837;DHT22;31548;51.420;-0.040;2023-02-01T08:11:05;6.20;99.90
45837;DHT22;31548;51.420;-0.040;2023-02-01T08:13:35;6.20;99.90
45837;DHT22;31548;51.420;-0.040;2023-02-01T08:16:05;6.20;99.90
45837;DHT22;31548;51.420;-0.040;2023-02-01T08:18:35;6.20;99.90
45837;DHT22;31548;51.420;-0.040;2023-02-01T08:21:14;6.20;99.90
45837;DHT22;31548;51.420;-0.040;2023-02-01T08:23:42;6.20;99.90
45837;DHT22;31548;51.420;-0.040;2023-02-01T08:26:15;6.30;99.90
45837;DHT22;31548;51.420;-0.040;2023-02-01T08:28:46;6.30;99.90
45837;DHT22;31548;51.420;-0.040;2023-02-01T08:31:15;6.30;99.90
45837;DHT22;31548;51.420;-0.040;2023-02-01T08:33:44;6.30;99.90
45837;DHT22;31548;51.420;-0.040;2023-02-01T08:36:14;6.40;99.90
45837;DHT22;31548;51.420;-0.040;2023-02-01T08:38:41;6.40;99.90
45837;DHT22;31548;51.420;-0.040;2023-02-01T08:41:12;6.40;99.90
45837;DHT22;31548;51.420;-0.040;2023-02-01T08:43:40;6.40;99.90
45837;DHT22;31548;51.420;-0.040;2023-02-01T08:46:08;6.40;99.90
45837;DHT22;31548;51.420;-0.040;2023-02-01T08:48:36;6.40;99.90
45837;DHT22;31548;51.420;-0.040;2023-02-01T08:51:09;6.40;99.90
45837;DHT22;31548;51.420;-0.040;2023-02-01T08:53:37;6.40;99.90
45837;DHT22;31548;51.420;-0.040;2023-02-01T08:56:07;6.40;99.90
45837;DHT22;31548;51.420;-0.040;2023-02-01T08:58:35;6.40;99.90
45837;DHT22;31548;51.420;-0.040;2023-02-01T09:01:13;6.40;99.90
45837;DHT22;31548;51.420;-0.040;2023-02-01T09:03:40;6.40;99.90
45837;DHT22;31548;51.420;-0.040;2023-02-01T09:06:11;6.40;99.90
45837;DHT22;31548;51.420;-0.040;2023-02-01T09:08:38;6.50;99.90
45837;DHT22;31548;51.420;-0.040;2023-02-01T09:11:10;6.50;99.90
45837;DHT22;31548;51.420;-0.040;2023-02-01T09:13:38;6.70;99.90
45837;DHT22;31548;51.420;-0.040;2023-02-01T09:16:05;6.80;99.90
45837;DHT22;31548;51.420;-0.040;2023-02-01T09:18:33;6.80;99.90
45837;DHT22;31548;51.420;-0.040;2023-02-01T09:21:07;6.80;99.90
45837;DHT22;31548;51.420;-0.040;2023-02-01T09:23:35;6.80;99.90
45837;DHT22;31548;51.420;-0.040;2023-02-01T09:26:03;6.90;99.90
45837;DHT22;31548;51.420;-0.040;2023-02-01T09:28:31;7.00;99.90
45837;DHT22;31548;51.420;-0.040;2023-02-01T09:30:59;7.00;99.90
45837;DHT22;31548;51.420;-0.040;2023-02-01T09:33:28;7.10;99.90
45837;DHT22;31548;51.420;-0.040;2023-02-01T09:36:00;7.10;99.90
45837;DHT22;31548;51.420;-0.040;2023-02-01T09:38:28;7.20;99.90
45837;DHT22;31548;51.420;-0.040;2023-02-01T09:40:57;7.20;99.90
45837;DHT22;31548;51.420;-0.040;2023-02-01T09:43:53;7.30;99.90
45837;DHT22;31548;51.420;-0.040;2023-02-01T09:48:55;7.30;99.90
45837;DHT22;31548;51.420;-0.040;2023-02-01T09:51:27;7.30;99.90
45837;DHT22;31548;51.420;-0.040;2023-02-01T09:54:04;7.40;99.90
45837;DHT22;31548;51.420;-0.040;2023-02-01T09:56:47;7.40;99.90
45837;DHT22;31548;51.420;-0.040;2023-02-01T09:59:32;7.40;99.90
45837;DHT22;31548;51.420;-0.040;2023-02-01T10:02:02;7.40;99.90
45837;DHT22;31548;51.420;-0.040;2023-02-01T10:04:30;7.50;99.90
45837;DHT22;31548;51.420;-0.040;2023-02-01T10:21:28;7.80;99.90
45837;DHT22;31548;51.420;-0.040;2023-02-01T10:29:36;7.90;99.90
45837;DHT22;31548;51.420;-0.040;2023-02-01T10:32:15;8.00;99.90
45837;DHT22;31548;51.420;-0.040;2023-02-01T10:34:46;8.00;99.90
45837;DHT22;31548;51.420;-0.040;2023-02-01T10:37:29;8.10;99.90
45837;DHT22;31548;51.420;-0.040;2023-02-01T10:39:59;8.10;99.90
45837;DHT22;31548;51.420;-0.040;2023-02-01T10:42:28;8.10;99.90
45837;DHT22;31548;51.420;-0.040;2023-02-01T10:44:59;8.20;99.90
45837;DHT22;31548;51.420;-0.040;2023-02-01T10:47:28;8.20;99.90
45837;DHT22;31548;51.420;-0.040;2023-02-01T10:50:02;8.30;99.90
45837;DHT22;31548;51.420;-0.040;2023-02-01T10:52:46;8.30;99.90
45837;DHT22;31548;51.420;-0.040;2023-02-01T10:55:39;8.30;99.90
45837;DHT22;31548;51.420;-0.040;2023-02-01T10:58:35;8.40;99.90
45837;DHT22;31548;51.420;-0.040;2023-02-01T11:01:09;8.40;99.90
45837;DHT22;31548;51.420;-0.040;2023-02-01T11:04:20;8.50;99.90
45837;DHT22;31548;51.420;-0.040;2023-02-01T11:06:28;8.60;99.90
45837;DHT22;31548;51.420;-0.040;2023-02-01T11:08:58;8.60;99.90
45837;DHT22;31548;51.420;-0.040;2023-02-01T11:11:27;8.60;99.90
45837;DHT22;31548;51.420;-0.040;2023-02-01T11:14:16;8.60;99.90
45837;DHT22;31548;51.420;-0.040;2023-02-01T11:16:49;8.60;99.90
45837;DHT22;31548;51.420;-0.040;2023-02-01T11:19:17;8.70;99.90
45837;DHT22;31548;51.420;-0.040;2023-02-01T11:21:48;8.70;99.90
45837;DHT22;31548;51.420;-0.040;2023-02-01T11:24:26;8.80;99.90
45837;DHT22;31548;51.420;-0.040;2023-02-01T11:26:57;8.80;99.90
45837;DHT22;31548;51.420;-0.040;2023-02-01T11:29:31;8.90;99.90
45837;DHT22;31548;51.420;-0.040;2023-02-01T11:32:01;8.90;99.90
45837;DHT22;31548;51.420;-0.040;2023-02-01T11:34:42;8.90;99.90
45837;DHT22;31548;51.420;-0.040;2023-02-01T11:37:38;9.10;99.90
45837;DHT22;31548;51.420;-0.040;2023-02-01T11:42:57;9.20;99.90
45837;DHT22;31548;51.420;-0.040;2023-02-01T11:47:55;9.20;99.90
45837;DHT22;31548;51.420;-0.040;2023-02-01T11:50:34;9.10;99.90
45837;DHT22;31548;51.420;-0.040;2023-02-01T11:58:46;9.10;99.90
45837;DHT22;31548;51.420;-0.040;2023-02-01T12:12:38;9.50;99.90
45837;DHT22;31548;51.420;-0.040;2023-02-01T12:29:21;9.90;99.90
45837;DHT22;31548;51.420;-0.040;2023-02-01T12:46:41;10.10;99.90
45837;DHT22;31548;51.420;-0.040;2023-02-01T12:51:57;10.10;99.90
45837;DHT22;31548;51.420;-0.040;2023-02-01T12:54:43;10.20;99.90
45837;DHT22;31548;51.420;-0.040;2023-02-01T12:57:21;10.20;99.90
45837;DHT22;31548;51.420;-0.040;2023-02-01T13:00:20;10.20;99.90
45837;DHT22;31548;51.420;-0.040;2023-02-01T13:03:01;10.20;99.90
45837;DHT22;31548;51.420;-0.040;2023-02-01T13:05:52;10.30;99.90
45837;DHT22;31548;51.420;-0.040;2023-02-01T13:11:24;10.40;99.90
45837;DHT22;31548;51.420;-0.040;2023-02-01T13:16:32;10.50;99.90
45837;DHT22;31548;51.420;-0.040;2023-02-01T13:22:29;10.50;99.90
45837;DHT22;31548;51.420;-0.040;2023-02-01T13:25:26;10.50;99.90
45837;DHT22;31548;51.420;-0.040;2023-02-01T13:27:48;10.40;99.90
45837;DHT22;31548;51.420;-0.040;2023-02-01T13:30:32;10.50;99.90
45837;DHT22;31548;51.420;-0.040;2023-02-01T13:39:15;10.70;99.90
45837;DHT22;31548;51.420;-0.040;2023-02-01T13:44:41;10.80;99.90
45837;DHT22;31548;51.420;-0.040;2023-02-01T13:49:44;10.80;99.90
45837;DHT22;31548;51.420;-0.040;2023-02-01T13:52:51;10.70;99.90
45837;DHT22;31548;51.420;-0.040;2023-02-01T13:57:51;10.70;99.90
45837;DHT22;31548;51.420;-0.040;2023-02-01T14:00:37;10.70;99.90
45837;DHT22;31548;51.420;-0.040;2023-02-01T14:10:57;10.80;99.90
45837;DHT22;31548;51.420;-0.040;2023-02-01T14:21:28;10.80;99.90
45837;DHT22;31548;51.420;-0.040;2023-02-01T14:24:20;10.80;99.90
45837;DHT22;31548;51.420;-0.040;2023-02-01T14:26:52;10.80;99.90
45837;DHT22;31548;51.420;-0.040;2023-02-01T14:29:36;10.80;99.90
45837;DHT22;31548;51.420;-0.040;2023-02-01T14:32:16;10.80;99.90
45837;DHT22;31548;51.420;-0.040;2023-02-01T14:44:53;10.70;99.90
45837;DHT22;31548;51.420;-0.040;2023-02-01T14:47:28;10.70;99.90
45837;DHT22;31548;51.420;-0.040;2023-02-01T14:58:32;10.70;99.90
45837;DHT22;31548;51.420;-0.040;2023-02-01T15:09:23;10.70;99.90
45837;DHT22;31548;51.420;-0.040;2023-02-01T15:12:46;10.60;99.90
45837;DHT22;31548;51.420;-0.040;2023-02-01T15:15:11;10.70;99.90
45837;DHT22;31548;51.420;-0.040;2023-02-01T15:17:39;10.60;99.90
45837;DHT22;31548;51.420;-0.040;2023-02-01T15:20:18;10.60;99.90
45837;DHT22;31548;51.420;-0.040;2023-02-01T15:23:05;10.60;99.90
45837;DHT22;31548;51.420;-0.040;2023-02-01T15:25:35;10.60;99.90
45837;DHT22;31548;51.420;-0.040;2023-02-01T15:28:04;10.60;99.90
45837;DHT22;31548;51.420;-0.040;2023-02-01T15:30:34;10.60;99.90
45837;DHT22;31548;51.420;-0.040;2023-02-01T15:35:39;10.60;99.90
45837;DHT22;31548;51.420;-0.040;2023-02-01T15:41:15;10.50;99.90
45837;DHT22;31548;51.420;-0.040;2023-02-01T15:46:24;10.40;99.90
45837;DHT22;31548;51.420;-0.040;2023-02-01T15:48:56;10.50;99.90
45837;DHT22;31548;51.420;-0.040;2023-02-01T15:51:28;10.50;99.90
45837;DHT22;31548;51.420;-0.040;2023-02-01T15:56:36;10.40;99.90
45837;DHT22;31548;51.420;-0.040;2023-02-01T15:59:20;10.40;99.90
45837;DHT22;31548;51.420;-0.040;2023-02-01T16:01:48;10.40;99.90
45837;DHT22;31548;51.420;-0.040;2023-02-01T16:07:02;10.40;99.90
45837;DHT22;31548;51.420;-0.040;2023-02-01T16:09:39;10.30;99.90
45837;DHT22;31548;51.420;-0.040;2023-02-01T16:12:34;10.30;99.90
45837;DHT22;31548;51.420;-0.040;2023-02-01T16:15:13;10.30;99.90
45837;DHT22;31548;51.420;-0.040;2023-02-01T16:17:40;10.30;99.90
45837;DHT22;31548;51.420;-0.040;2023-02-01T16:20:09;10.20;99.90
45837;DHT22;31548;51.420;-0.040;2023-02-01T16:22:37;10.20;99.90
45837;DHT22;31548;51.420;-0.040;2023-02-01T16:25:04;10.20;99.90
45837;DHT22;31548;51.420;-0.040;2023-02-01T16:27:32;10.20;99.90
45837;DHT22;31548;51.420;-0.040;2023-02-01T16:29:59;10.20;99.90
45837;DHT22;31548;51.420;-0.040;2023-02-01T16:32:26;10.10;99.90
45837;DHT22;31548;51.420;-0.040;2023-02-01T16:34:53;10.10;99.90
45837;DHT22;31548;51.420;-0.040;2023-02-01T16:37:22;10.10;99.90
45837;DHT22;31548;51.420;-0.040;2023-02-01T16:39:49;10.00;99.90
45837;DHT22;31548;51.420;-0.040;2023-02-01T16:42:17;10.00;99.90
45837;DHT22;31548;51.420;-0.040;2023-02-01T16:44:44;10.00;99.90
45837;DHT22;31548;51.420;-0.040;2023-02-01T16:47:19;10.00;99.90
45837;DHT22;31548;51.420;-0.040;2023-02-01T16:49:49;10.00;99.90
45837;DHT22;31548;51.420;-0.040;2023-02-01T16:52:23;10.00;99.90
45837;DHT22;31548;51.420;-0.040;2023-02-01T16:54:50;10.00;99.90
45837;DHT22;31548;51.420;-0.040;2023-02-01T16:57:19;10.00;99.90
45837;DHT22;31548;51.420;-0.040;2023-02-01T16:59:49;10.00;99.90
45837;DHT22;31548;51.420;-0.040;2023-02-01T17:02:19;9.90;99.90
45837;DHT22;31548;51.420;-0.040;2023-02-01T17:04:46;9.90;99.90
45837;DHT22;31548;51.420;-0.040;2023-02-01T17:07:16;9.90;99.90
45837;DHT22;31548;51.420;-0.040;2023-02-01T17:09:46;9.90;99.90
45837;DHT22;31548;51.420;-0.040;2023-02-01T17:12:26;9.90;99.90
45837;DHT22;31548;51.420;-0.040;2023-02-01T17:14:53;9.90;99.90
45837;DHT22;31548;51.420;-0.040;2023-02-01T17:17:21;9.90;99.90
45837;DHT22;31548;51.420;-0.040;2023-02-01T17:20:05;9.90;99.90
45837;DHT22;31548;51.420;-0.040;2023-02-01T17:22:33;9.90;99.90
45837;DHT22;31548;51.420;-0.040;2023-02-01T17:25:00;9.80;99.90
45837;DHT22;31548;51.420;-0.040;2023-02-01T17:27:27;9.80;99.90
45837;DHT22;31548;51.420;-0.040;2023-02-01T17:29:56;9.80;99.90
45837;DHT22;31548;51.420;-0.040;2023-02-01T17:32:25;9.80;99.90
45837;DHT22;31548;51.420;-0.040;2023-02-01T17:34:52;9.80;99.90
45837;DHT22;31548;51.420;-0.040;2023-02-01T17:37:31;9.80;99.90
45837;DHT22;31548;51.420;-0.040;2023-02-01T17:39:59;9.80;99.90
45837;DHT22;31548;51.420;-0.040;2023-02-01T17:42:27;9.80;99.90
45837;DHT22;31548;51.420;-0.040;2023-02-01T17:44:57;9.70;99.90
45837;DHT22;31548;51.420;-0.040;2023-02-01T17:47:26;9.70;99.90
45837;DHT22;31548;51.420;-0.040;2023-02-01T17:49:53;9.70;99.90
45837;DHT22;31548;51.420;-0.040;2023-02-01T17:52:24;9.60;99.90
45837;DHT22;31548;51.420;-0.040;2023-02-01T17:54:52;9.60;99.90
45837;DHT22;31548;51.420;-0.040;2023-02-01T17:57:20;9.60;99.90
45837;DHT22;31548;51.420;-0.040;2023-02-01T17:59:48;9.60;99.90
45837;DHT22;31548;51.420;-0.040;2023-02-01T18:02:19;9.60;99.90
45837;DHT22;31548;51.420;-0.040;2023-02-01T18:04:47;9.60;99.90
45837;DHT22;31548;51.420;-0.040;2023-02-01T18:07:16;9.60;99.90
45837;DHT22;31548;51.420;-0.040;2023-02-01T18:09:43;9.50;99.90
45837;DHT22;31548;51.420;-0.040;2023-02-01T18:12:21;9.50;99.90
45837;DHT22;31548;51.420;-0.040;2023-02-01T18:14:49;9.50;99.90
45837;DHT22;31548;51.420;-0.040;2023-02-01T18:17:16;9.50;99.90
45837;DHT22;31548;51.420;-0.040;2023-02-01T18:19:44;9.50;99.90
45837;DHT22;31548;51.420;-0.040;2023-02-01T18:22:16;9.60;99.90
45837;DHT22;31548;51.420;-0.040;2023-02-01T18:24:44;9.50;99.90
45837;DHT22;31548;51.420;-0.040;2023-02-01T18:27:12;9.50;99.90
45837;DHT22;31548;51.420;-0.040;2023-02-01T18:29:39;9.50;99.90
45837;DHT22;31548;51.420;-0.040;2023-02-01T18:32:08;9.50;99.90
45837;DHT22;31548;51.420;-0.040;2023-02-01T18:34:36;9.50;99.90
45837;DHT22;31548;51.420;-0.040;2023-02-01T18:37:04;9.40;99.90
45837;DHT22;31548;51.420;-0.040;2023-02-01T18:39:31;9.40;99.90
45837;DHT22;31548;51.420;-0.040;2023-02-01T18:41:58;9.40;99.90
45837;DHT22;31548;51.420;-0.040;2023-02-01T18:44:25;9.40;99.90
45837;DHT22;31548;51.420;-0.040;2023-02-01T18:46:53;9.40;99.90
45837;DHT22;31548;51.420;-0.040;2023-02-01T18:49:20;9.40;99.90